createdAt,value
2018-08-07T00:00:30.808Z,1006.84
2018-08-07T00:01:39.422Z,1006.85
2018-08-07T00:02:48.295Z,1006.85
2018-08-07T00:03:56.912Z,1006.85
2018-08-07T00:05:05.527Z,1006.86
2018-08-07T00:06:14.139Z,1006.89
2018-08-07T00:07:22.749Z,1006.84
2018-08-07T00:08:31.365Z,1006.81
2018-08-07T00:09:39.978Z,1006.8
2018-08-07T00:10:48.591Z,1006.77
2018-08-07T00:11:57.204Z,1006.76
2018-08-07T00:13:05.821Z,1006.78
2018-08-07T00:14:14.436Z,1006.79
2018-08-07T00:15:23.048Z,1006.79
2018-08-07T00:16:31.663Z,1006.82
2018-08-07T00:17:40.278Z,1006.72
2018-08-07T00:18:48.892Z,1006.76
2018-08-07T00:19:57.505Z,1006.74
2018-08-07T00:21:06.121Z,1006.74
2018-08-07T00:22:14.998Z,1006.74
2018-08-07T00:23:23.613Z,1006.75
2018-08-07T00:24:32.228Z,1006.72
2018-08-07T00:25:40.840Z,1006.7
2018-08-07T00:26:49.451Z,1006.7
2018-08-07T00:27:58.064Z,1006.71
2018-08-07T00:29:06.678Z,1006.73
2018-08-07T00:30:15.291Z,1006.7
2018-08-07T00:31:23.910Z,1006.68
2018-08-07T00:32:32.524Z,1006.63
2018-08-07T00:33:41.135Z,1006.61
2018-08-07T00:34:49.748Z,1006.62
2018-08-07T00:35:58.360Z,1006.64
2018-08-07T00:37:06.973Z,1006.62
2018-08-07T00:38:15.586Z,1006.63
2018-08-07T00:39:24.200Z,1006.59
2018-08-07T00:40:32.816Z,1006.59
2018-08-07T00:41:41.691Z,1006.61
2018-08-07T00:42:50.566Z,1006.6
2018-08-07T00:43:59.178Z,1006.6
2018-08-07T00:45:07.793Z,1006.55
2018-08-07T00:46:16.405Z,1006.57
2018-08-07T00:47:25.018Z,1006.55
2018-08-07T00:48:33.630Z,1006.53
2018-08-07T00:49:42.243Z,1006.52
2018-08-07T00:50:50.856Z,1006.52
2018-08-07T00:51:59.468Z,1006.51
2018-08-07T00:53:08.081Z,1006.53
2018-08-07T00:54:16.955Z,1006.5
2018-08-07T00:55:25.834Z,1006.44
2018-08-07T00:56:34.447Z,1006.46
2018-08-07T00:57:43.057Z,1006.41
2018-08-07T00:58:51.676Z,1006.41
2018-08-07T01:00:00.281Z,1006.41
2018-08-07T01:01:09.168Z,1006.37
2018-08-07T01:02:17.779Z,1006.37
2018-08-07T01:03:26.398Z,1006.37
2018-08-07T01:04:35.006Z,1006.39
2018-08-07T01:05:43.625Z,1006.4
2018-08-07T01:06:52.233Z,1006.36
2018-08-07T01:08:00.849Z,1006.35
2018-08-07T01:09:09.461Z,1006.32
2018-08-07T01:10:18.078Z,1006.29
2018-08-07T01:11:26.689Z,1006.33
2018-08-07T01:12:35.301Z,1006.31
2018-08-07T01:13:43.919Z,1006.32
2018-08-07T01:14:52.527Z,1006.35
2018-08-07T01:16:01.145Z,1006.35
2018-08-07T01:17:09.756Z,1006.35
2018-08-07T01:18:18.375Z,1006.31
2018-08-07T01:19:26.983Z,1006.26
2018-08-07T01:20:35.599Z,1006.25
2018-08-07T01:21:44.210Z,1006.25
2018-08-07T01:22:52.831Z,1006.25
2018-08-07T01:24:01.436Z,1006.26
2018-08-07T01:25:10.057Z,1006.27
2018-08-07T01:26:18.927Z,1006.27
2018-08-07T01:27:27.539Z,1006.26
2018-08-07T01:28:36.151Z,1006.23
2018-08-07T01:29:44.762Z,1006.25
2018-08-07T01:30:53.636Z,1006.24
2018-08-07T01:32:02.259Z,1006.21
2018-08-07T01:33:10.882Z,1006.22
2018-08-07T01:34:19.493Z,1006.18
2018-08-07T01:35:28.372Z,1006.2
2018-08-07T01:36:36.979Z,1006.21
2018-08-07T01:37:45.598Z,1006.19
2018-08-07T01:38:54.483Z,1006.19
2018-08-07T01:40:03.100Z,1006.14
2018-08-07T01:41:11.973Z,1006.13
2018-08-07T01:42:20.591Z,1006.16
2018-08-07T01:43:29.197Z,1006.13
2018-08-07T01:44:37.813Z,1006.16
2018-08-07T01:45:46.424Z,1006.15
2018-08-07T01:46:55.045Z,1006.14
2018-08-07T01:48:03.651Z,1006.11
2018-08-07T01:49:12.267Z,1006.11
2018-08-07T01:50:21.136Z,1006.14
2018-08-07T01:51:29.755Z,1006.14
2018-08-07T01:52:38.373Z,1006.15
2018-08-07T01:53:46.993Z,1006.15
2018-08-07T01:54:55.865Z,1006.16
2018-08-07T01:56:04.478Z,1006.15
2018-08-07T01:57:13.098Z,1006.14
2018-08-07T01:58:21.710Z,1006.15
2018-08-07T01:59:30.318Z,1006.13
2018-08-07T02:00:38.951Z,1006.11
2018-08-07T02:01:47.544Z,1006.14
2018-08-07T02:02:56.158Z,1006.09
2018-08-07T02:04:04.775Z,1006.08
2018-08-07T02:05:13.385Z,1006.07
2018-08-07T02:06:22.005Z,1006.05
2018-08-07T02:07:30.614Z,1006
2018-08-07T02:08:39.491Z,1006.03
2018-08-07T02:09:48.097Z,1006.03
2018-08-07T02:10:56.968Z,1006.04
2018-08-07T02:12:05.581Z,1006.04
2018-08-07T02:13:14.198Z,1006.09
2018-08-07T02:14:22.808Z,1006.05
2018-08-07T02:15:31.421Z,1006.05
2018-08-07T02:16:40.033Z,1006.04
2018-08-07T02:17:48.648Z,1006.02
2018-08-07T02:18:57.519Z,1006.01
2018-08-07T02:20:06.133Z,1005.97
2018-08-07T02:21:14.746Z,1005.95
2018-08-07T02:22:23.356Z,1005.99
2018-08-07T02:23:31.969Z,1005.95
2018-08-07T02:24:40.578Z,1005.98
2018-08-07T02:25:49.192Z,1005.99
2018-08-07T02:26:57.803Z,1005.94
2018-08-07T02:28:06.418Z,1005.99
2018-08-07T02:29:15.032Z,1005.97
2018-08-07T02:30:23.901Z,1005.99
2018-08-07T02:31:32.515Z,1006.01
2018-08-07T02:32:41.650Z,1006.06
2018-08-07T02:33:50.275Z,1006.03
2018-08-07T02:34:59.168Z,1006.03
2018-08-07T02:36:07.775Z,1006.06
2018-08-07T02:37:16.913Z,1006
2018-08-07T02:38:25.533Z,1005.97
2018-08-07T02:39:34.145Z,1005.93
2018-08-07T02:40:42.767Z,1005.92
2018-08-07T02:41:51.649Z,1005.86
2018-08-07T02:43:00.260Z,1005.88
2018-08-07T02:44:09.135Z,1005.84
2018-08-07T02:45:18.006Z,1005.83
2018-08-07T02:46:26.888Z,1005.79
2018-08-07T02:47:35.760Z,1005.85
2018-08-07T02:48:44.371Z,1005.85
2018-08-07T02:49:52.990Z,1005.86
2018-08-07T02:51:01.603Z,1005.86
2018-08-07T02:52:10.219Z,1005.83
2018-08-07T02:53:18.835Z,1005.84
2018-08-07T02:54:27.446Z,1005.82
2018-08-07T02:55:36.072Z,1005.75
2018-08-07T02:56:44.682Z,1005.75
2018-08-07T02:57:53.551Z,1005.74
2018-08-07T02:59:02.442Z,1005.74
2018-08-07T03:00:11.591Z,1005.73
2018-08-07T03:01:20.461Z,1005.7
2018-08-07T03:02:29.331Z,1005.67
2018-08-07T03:03:37.945Z,1005.7
2018-08-07T03:04:46.818Z,1005.7
2018-08-07T03:05:55.709Z,1005.68
2018-08-07T03:07:04.319Z,1005.64
2018-08-07T03:08:12.951Z,1005.68
2018-08-07T03:09:21.825Z,1005.67
2018-08-07T03:10:30.693Z,1005.66
2018-08-07T03:11:39.567Z,1005.66
2018-08-07T03:12:48.444Z,1005.65
2018-08-07T03:13:57.052Z,1005.67
2018-08-07T03:15:05.678Z,1005.67
2018-08-07T03:16:15.072Z,1005.65
2018-08-07T03:17:23.958Z,1005.66
2018-08-07T03:18:32.577Z,1005.63
2018-08-07T03:19:41.193Z,1005.63
2018-08-07T03:20:49.817Z,1005.63
2018-08-07T03:21:58.428Z,1005.6
2018-08-07T03:23:07.042Z,1005.61
2018-08-07T03:24:15.654Z,1005.59
2018-08-07T03:25:24.276Z,1005.62
2018-08-07T03:26:32.895Z,1005.59
2018-08-07T03:27:41.503Z,1005.62
2018-08-07T03:28:50.378Z,1005.6
2018-08-07T03:29:58.992Z,1005.6
2018-08-07T03:31:07.602Z,1005.61
2018-08-07T03:32:16.218Z,1005.64
2018-08-07T03:33:24.828Z,1005.62
2018-08-07T03:34:33.441Z,1005.63
2018-08-07T03:35:42.050Z,1005.67
2018-08-07T03:36:50.668Z,1005.66
2018-08-07T03:37:59.281Z,1005.7
2018-08-07T03:39:07.893Z,1005.71
2018-08-07T03:40:16.507Z,1005.77
2018-08-07T03:41:25.381Z,1005.69
2018-08-07T03:42:33.999Z,1005.68
2018-08-07T03:43:42.606Z,1005.74
2018-08-07T03:44:51.222Z,1005.77
2018-08-07T03:46:00.086Z,1005.73
2018-08-07T03:47:08.966Z,1005.69
2018-08-07T03:48:17.573Z,1005.74
2018-08-07T03:49:26.189Z,1005.73
2018-08-07T03:50:34.802Z,1005.72
2018-08-07T03:51:43.409Z,1005.74
2018-08-07T03:52:52.026Z,1005.72
2018-08-07T03:54:00.641Z,1005.72
2018-08-07T03:55:09.257Z,1005.77
2018-08-07T03:56:17.866Z,1005.72
2018-08-07T03:57:26.473Z,1005.77
2018-08-07T03:58:35.088Z,1005.71
2018-08-07T03:59:43.707Z,1005.71
2018-08-07T04:00:52.589Z,1005.69
2018-08-07T04:02:01.200Z,1005.68
2018-08-07T04:03:10.074Z,1005.71
2018-08-07T04:04:18.685Z,1005.68
2018-08-07T04:05:27.296Z,1005.69
2018-08-07T04:06:35.906Z,1005.7
2018-08-07T04:07:44.527Z,1005.71
2018-08-07T04:08:53.401Z,1005.75
2018-08-07T04:10:02.016Z,1005.75
2018-08-07T04:11:10.631Z,1005.78
2018-08-07T04:12:19.247Z,1005.76
2018-08-07T04:13:27.852Z,1005.75
2018-08-07T04:14:36.464Z,1005.73
2018-08-07T04:15:45.077Z,1005.75
2018-08-07T04:16:53.692Z,1005.74
2018-08-07T04:18:02.308Z,1005.71
2018-08-07T04:19:10.915Z,1005.67
2018-08-07T04:20:19.531Z,1005.69
2018-08-07T04:21:28.140Z,1005.65
2018-08-07T04:22:36.757Z,1005.67
2018-08-07T04:23:45.364Z,1005.69
2018-08-07T04:24:53.978Z,1005.69
2018-08-07T04:26:02.667Z,1005.68
2018-08-07T04:27:11.207Z,1005.69
2018-08-07T04:28:20.073Z,1005.67
2018-08-07T04:29:28.685Z,1005.66
2018-08-07T04:30:37.295Z,1005.68
2018-08-07T04:31:46.172Z,1005.67
2018-08-07T04:32:54.782Z,1005.63
2018-08-07T04:34:03.392Z,1005.62
2018-08-07T04:35:12.006Z,1005.63
2018-08-07T04:36:20.617Z,1005.67
2018-08-07T04:37:29.234Z,1005.67
2018-08-07T04:38:37.844Z,1005.65
2018-08-07T04:39:46.458Z,1005.63
2018-08-07T04:40:55.063Z,1005.7
2018-08-07T04:42:03.682Z,1005.72
2018-08-07T04:43:12.546Z,1005.76
2018-08-07T04:44:21.163Z,1005.75
2018-08-07T04:45:29.770Z,1005.8
2018-08-07T04:46:38.392Z,1005.78
2018-08-07T04:47:46.998Z,1005.81
2018-08-07T04:48:55.872Z,1005.78
2018-08-07T04:50:04.485Z,1005.81
2018-08-07T04:51:13.100Z,1005.77
2018-08-07T04:52:21.973Z,1005.78
2018-08-07T04:53:30.603Z,1005.78
2018-08-07T04:54:39.475Z,1005.76
2018-08-07T04:55:48.092Z,1005.78
2018-08-07T04:56:56.701Z,1005.79
2018-08-07T04:58:05.380Z,1005.79
2018-08-07T04:59:14.267Z,1005.78
2018-08-07T05:00:22.882Z,1005.76
2018-08-07T05:01:31.488Z,1005.73
2018-08-07T05:02:40.102Z,1005.73
2018-08-07T05:03:48.977Z,1005.7
2018-08-07T05:04:57.592Z,1005.74
2018-08-07T05:06:06.204Z,1005.71
2018-08-07T05:07:14.815Z,1005.74
2018-08-07T05:08:23.689Z,1005.69
2018-08-07T05:09:32.298Z,1005.7
2018-08-07T05:10:40.924Z,1005.7
2018-08-07T05:11:49.535Z,1005.71
2018-08-07T05:12:58.146Z,1005.69
2018-08-07T05:14:06.773Z,1005.69
2018-08-07T05:15:15.655Z,1005.77
2018-08-07T05:16:24.267Z,1005.75
2018-08-07T05:17:32.881Z,1005.76
2018-08-07T05:18:41.497Z,1005.74
2018-08-07T05:19:50.109Z,1005.76
2018-08-07T05:20:58.721Z,1005.73
2018-08-07T05:22:07.860Z,1005.77
2018-08-07T05:23:16.475Z,1005.73
2018-08-07T05:24:25.087Z,1005.8
2018-08-07T05:25:33.704Z,1005.79
2018-08-07T05:26:42.571Z,1005.81
2018-08-07T05:27:51.187Z,1005.79
2018-08-07T05:28:59.794Z,1005.79
2018-08-07T05:30:08.406Z,1005.81
2018-08-07T05:31:17.021Z,1005.81
2018-08-07T05:32:25.631Z,1005.82
2018-08-07T05:33:34.240Z,1005.84
2018-08-07T05:34:42.856Z,1005.86
2018-08-07T05:35:51.745Z,1005.85
2018-08-07T05:37:00.342Z,1005.89
2018-08-07T05:38:08.952Z,1005.87
2018-08-07T05:39:17.566Z,1005.83
2018-08-07T05:40:26.179Z,1005.79
2018-08-07T05:41:34.792Z,1005.82
2018-08-07T05:42:43.787Z,1005.82
2018-08-07T05:43:52.689Z,1005.81
2018-08-07T05:45:01.301Z,1005.84
2018-08-07T05:46:10.176Z,1005.83
2018-08-07T05:47:18.794Z,1005.82
2018-08-07T05:48:27.409Z,1005.83
2018-08-07T05:49:36.022Z,1005.86
2018-08-07T05:50:44.957Z,1005.9
2018-08-07T05:51:53.245Z,1005.9
2018-08-07T05:53:02.120Z,1005.92
2018-08-07T05:54:10.736Z,1005.92
2018-08-07T05:55:19.691Z,1005.92
2018-08-07T05:56:28.283Z,1005.92
2018-08-07T05:57:37.836Z,1005.96
2018-08-07T05:58:47.129Z,1005.95
2018-08-07T05:59:55.670Z,1005.95
2018-08-07T06:01:04.545Z,1005.95
2018-08-07T06:02:13.166Z,1005.97
2018-08-07T06:03:22.040Z,1005.94
2018-08-07T06:04:30.657Z,1005.88
2018-08-07T06:05:39.275Z,1005.88
2018-08-07T06:06:47.888Z,1005.88
2018-08-07T06:07:56.506Z,1005.88
2018-08-07T06:09:05.121Z,1005.89
2018-08-07T06:10:13.735Z,1005.92
2018-08-07T06:11:22.346Z,1005.91
2018-08-07T06:12:30.961Z,1005.89
2018-08-07T06:13:39.573Z,1005.91
2018-08-07T06:14:48.450Z,1005.95
2018-08-07T06:15:57.063Z,1005.96
2018-08-07T06:17:05.683Z,1005.96
2018-08-07T06:18:14.303Z,1005.99
2018-08-07T06:19:22.920Z,1006
2018-08-07T06:20:31.531Z,1005.96
2018-08-07T06:21:40.145Z,1005.93
2018-08-07T06:22:49.282Z,1005.98
2018-08-07T06:23:57.896Z,1005.97
2018-08-07T06:25:07.028Z,1005.98
2018-08-07T06:26:16.173Z,1005.96
2018-08-07T06:27:24.789Z,1005.99
2018-08-07T06:28:33.683Z,1005.98
2018-08-07T06:29:42.966Z,1006.01
2018-08-07T06:30:51.582Z,1005.98
2018-08-07T06:32:00.197Z,1006
2018-08-07T06:33:08.814Z,1005.98
2018-08-07T06:34:17.689Z,1005.99
2018-08-07T06:35:26.558Z,1005.96
2018-08-07T06:36:35.174Z,1005.96
2018-08-07T06:37:43.799Z,1005.95
2018-08-07T06:38:52.401Z,1005.93
2018-08-07T06:40:01.018Z,1005.92
2018-08-07T06:41:09.635Z,1005.97
2018-08-07T06:42:18.249Z,1005.99
2018-08-07T06:43:26.866Z,1005.99
2018-08-07T06:44:35.738Z,1005.95
2018-08-07T06:45:44.352Z,1005.99
2018-08-07T06:46:53.228Z,1005.95
2018-08-07T06:48:01.924Z,1005.97
2018-08-07T06:49:11.162Z,1005.97
2018-08-07T06:50:19.921Z,1005.97
2018-08-07T06:51:28.388Z,1005.96
2018-08-07T06:52:37.259Z,1005.99
2018-08-07T06:53:45.878Z,1005.99
2018-08-07T06:54:54.484Z,1005.97
2018-08-07T06:56:03.361Z,1005.98
2018-08-07T06:57:12.047Z,1005.99
2018-08-07T06:58:20.601Z,1005.94
2018-08-07T06:59:29.470Z,1005.9
2018-08-07T07:00:38.083Z,1005.89
2018-08-07T07:01:46.700Z,1005.91
2018-08-07T07:02:55.586Z,1005.92
2018-08-07T07:04:04.205Z,1005.89
2018-08-07T07:05:12.819Z,1005.9
2018-08-07T07:06:21.441Z,1005.87
2018-08-07T07:07:30.052Z,1005.86
2018-08-07T07:08:38.675Z,1005.85
2018-08-07T07:09:47.328Z,1005.86
2018-08-07T07:10:55.905Z,1005.85
2018-08-07T07:12:04.527Z,1005.85
2018-08-07T07:13:13.146Z,1005.85
2018-08-07T07:14:21.761Z,1005.86
2018-08-07T07:15:30.385Z,1005.81
2018-08-07T07:16:38.990Z,1005.83
2018-08-07T07:17:47.605Z,1005.81
2018-08-07T07:18:56.229Z,1005.84
2018-08-07T07:20:04.849Z,1005.87
2018-08-07T07:21:13.464Z,1005.89
2018-08-07T07:22:22.079Z,1005.87
2018-08-07T07:23:30.698Z,1005.84
2018-08-07T07:24:39.310Z,1005.87
2018-08-07T07:25:47.931Z,1005.89
2018-08-07T07:26:56.805Z,1005.85
2018-08-07T07:28:05.421Z,1005.83
2018-08-07T07:29:14.035Z,1005.81
2018-08-07T07:30:22.657Z,1005.8
2018-08-07T07:31:31.268Z,1005.79
2018-08-07T07:32:40.148Z,1005.78
2018-08-07T07:33:49.022Z,1005.77
2018-08-07T07:34:57.643Z,1005.78
2018-08-07T07:36:06.259Z,1005.81
2018-08-07T07:37:14.897Z,1005.8
2018-08-07T07:38:23.501Z,1005.8
2018-08-07T07:39:32.151Z,1005.77
2018-08-07T07:40:40.825Z,1005.81
2018-08-07T07:41:49.454Z,1005.81
2018-08-07T07:42:58.108Z,1005.8
2018-08-07T07:44:07.025Z,1005.82
2018-08-07T07:45:15.672Z,1005.8
2018-08-07T07:46:24.323Z,1005.79
2018-08-07T07:47:32.975Z,1005.77
2018-08-07T07:48:41.622Z,1005.76
2018-08-07T07:49:50.281Z,1005.75
2018-08-07T07:50:58.929Z,1005.75
2018-08-07T07:52:07.583Z,1005.73
2018-08-07T07:53:16.494Z,1005.7
2018-08-07T07:54:25.144Z,1005.7
2018-08-07T07:55:34.064Z,1005.67
2018-08-07T07:56:42.988Z,1005.69
2018-08-07T07:57:51.640Z,1005.69
2018-08-07T07:59:00.288Z,1005.7
2018-08-07T08:00:08.945Z,1005.7
2018-08-07T08:01:17.594Z,1005.66
2018-08-07T08:02:26.251Z,1005.68
2018-08-07T08:03:34.899Z,1005.67
2018-08-07T08:04:43.553Z,1005.63
2018-08-07T08:05:52.244Z,1005.63
2018-08-07T08:07:00.873Z,1005.63
2018-08-07T08:08:09.780Z,1005.65
2018-08-07T08:09:18.437Z,1005.65
2018-08-07T08:10:27.087Z,1005.63
2018-08-07T08:11:35.744Z,1005.65
2018-08-07T08:12:44.655Z,1005.6
2018-08-07T08:13:53.309Z,1005.63
2018-08-07T08:15:01.963Z,1005.62
2018-08-07T08:16:10.608Z,1005.61
2018-08-07T08:17:19.264Z,1005.6
2018-08-07T08:18:27.915Z,1005.64
2018-08-07T08:19:36.568Z,1005.66
2018-08-07T08:20:45.219Z,1005.65
2018-08-07T08:21:54.138Z,1005.65
2018-08-07T08:23:02.793Z,1005.66
2018-08-07T08:24:11.447Z,1005.68
2018-08-07T08:25:20.098Z,1005.66
2018-08-07T08:26:28.759Z,1005.66
2018-08-07T08:27:37.679Z,1005.67
2018-08-07T08:28:46.341Z,1005.67
2018-08-07T08:29:55.425Z,1005.63
2018-08-07T08:31:03.922Z,1005.66
2018-08-07T08:32:12.575Z,1005.65
2018-08-07T08:33:21.237Z,1005.61
2018-08-07T08:34:29.885Z,1005.59
2018-08-07T08:35:38.829Z,1005.61
2018-08-07T08:36:47.823Z,1005.61
2018-08-07T08:37:56.741Z,1005.66
2018-08-07T08:39:05.398Z,1005.62
2018-08-07T08:40:14.046Z,1005.57
2018-08-07T08:41:22.963Z,1005.61
2018-08-07T08:42:31.615Z,1005.6
2018-08-07T08:43:40.277Z,1005.63
2018-08-07T08:44:48.923Z,1005.6
2018-08-07T08:45:57.576Z,1005.6
2018-08-07T08:47:06.492Z,1005.62
2018-08-07T08:48:15.156Z,1005.6
2018-08-07T08:49:23.801Z,1005.56
2018-08-07T08:50:32.451Z,1005.6
2018-08-07T08:51:41.103Z,1005.62
2018-08-07T08:52:50.018Z,1005.57
2018-08-07T08:53:58.740Z,1005.58
2018-08-07T08:55:07.329Z,1005.55
2018-08-07T08:56:15.988Z,1005.53
2018-08-07T08:57:24.632Z,1005.51
2018-08-07T08:58:33.293Z,1005.46
2018-08-07T08:59:41.942Z,1005.47
2018-08-07T09:00:50.599Z,1005.47
2018-08-07T09:01:59.247Z,1005.43
2018-08-07T09:03:07.907Z,1005.44
2018-08-07T09:04:16.558Z,1005.41
2018-08-07T09:05:25.222Z,1005.41
2018-08-07T09:06:34.139Z,1005.36
2018-08-07T09:07:42.793Z,1005.38
2018-08-07T09:08:51.454Z,1005.37
2018-08-07T09:10:00.109Z,1005.38
2018-08-07T09:11:09.031Z,1005.35
2018-08-07T09:12:17.675Z,1005.36
2018-08-07T09:13:26.333Z,1005.34
2018-08-07T09:14:34.982Z,1005.35
2018-08-07T09:15:43.645Z,1005.31
2018-08-07T09:16:52.548Z,1005.29
2018-08-07T09:18:01.473Z,1005.3
2018-08-07T09:19:10.121Z,1005.27
2018-08-07T09:20:19.052Z,1005.26
2018-08-07T09:21:27.709Z,1005.26
2018-08-07T09:22:36.356Z,1005.25
2018-08-07T09:23:45.009Z,1005.23
2018-08-07T09:24:53.676Z,1005.26
2018-08-07T09:26:02.378Z,1005.19
2018-08-07T09:27:10.987Z,1005.18
2018-08-07T09:28:19.933Z,1005.16
2018-08-07T09:29:29.615Z,1005.14
2018-08-07T09:30:38.541Z,1005.17
2018-08-07T09:31:47.248Z,1005.17
2018-08-07T09:32:55.922Z,1005.16
2018-08-07T09:34:04.849Z,1005.15
2018-08-07T09:35:13.513Z,1005.12
2018-08-07T09:36:22.165Z,1005.15
2018-08-07T09:37:30.824Z,1005.09
2018-08-07T09:38:39.470Z,1005.09
2018-08-07T09:39:48.393Z,1005.07
2018-08-07T09:40:57.046Z,1005.08
2018-08-07T09:42:05.701Z,1005.11
2018-08-07T09:43:14.615Z,1005.08
2018-08-07T09:44:23.538Z,1005.04
2018-08-07T09:45:32.192Z,1005.07
2018-08-07T09:46:40.942Z,1005.02
2018-08-07T09:47:49.511Z,1005.01
2018-08-07T09:48:58.160Z,1005.01
2018-08-07T09:50:06.815Z,1005.04
2018-08-07T09:51:15.740Z,1005.03
2018-08-07T09:52:24.477Z,1005
2018-08-07T09:53:33.052Z,1004.98
2018-08-07T09:54:41.969Z,1004.99
2018-08-07T09:55:50.624Z,1004.95
2018-08-07T09:56:59.284Z,1004.97
2018-08-07T09:58:07.936Z,1004.96
2018-08-07T09:59:16.593Z,1005
2018-08-07T10:00:25.247Z,1004.95
2018-08-07T10:01:33.901Z,1004.96
2018-08-07T10:02:42.592Z,1004.95
2018-08-07T10:03:51.264Z,1004.92
2018-08-07T10:04:59.925Z,1004.95
2018-08-07T10:06:08.971Z,1004.88
2018-08-07T10:07:17.670Z,1004.89
2018-08-07T10:08:26.681Z,1004.91
2018-08-07T10:09:35.828Z,1004.85
2018-08-07T10:10:44.566Z,1004.85
2018-08-07T10:11:53.409Z,1004.84
2018-08-07T10:13:02.073Z,1004.88
2018-08-07T10:14:10.996Z,1004.84
2018-08-07T10:15:19.653Z,1004.76
2018-08-07T10:16:28.575Z,1004.72
2018-08-07T10:17:37.236Z,1004.72
2018-08-07T10:18:46.223Z,1004.72
2018-08-07T10:19:54.874Z,1004.7
2018-08-07T10:21:03.800Z,1004.66
2018-08-07T10:22:12.542Z,1004.67
2018-08-07T10:23:21.245Z,1004.64
2018-08-07T10:24:29.861Z,1004.64
2018-08-07T10:25:38.512Z,1004.62
2018-08-07T10:26:47.172Z,1004.58
2018-08-07T10:27:56.351Z,1004.59
2018-08-07T10:29:05.013Z,1004.61
2018-08-07T10:30:13.666Z,1004.63
2018-08-07T10:31:22.326Z,1004.57
2018-08-07T10:32:31.267Z,1004.53
2018-08-07T10:33:39.929Z,1004.5
2018-08-07T10:34:48.579Z,1004.48
2018-08-07T10:35:57.236Z,1004.53
2018-08-07T10:37:05.897Z,1004.47
2018-08-07T10:38:14.554Z,1004.52
2018-08-07T10:39:23.214Z,1004.46
2018-08-07T10:40:31.893Z,1004.48
2018-08-07T10:41:40.523Z,1004.48
2018-08-07T10:42:49.178Z,1004.46
2018-08-07T10:43:57.987Z,1004.42
2018-08-07T10:45:06.511Z,1004.44
2018-08-07T10:46:15.177Z,1004.45
2018-08-07T10:47:24.091Z,1004.43
2018-08-07T10:48:32.755Z,1004.42
2018-08-07T10:49:41.406Z,1004.38
2018-08-07T10:50:50.298Z,1004.37
2018-08-07T10:51:59.132Z,1004.36
2018-08-07T10:53:07.802Z,1004.37
2018-08-07T10:54:16.717Z,1004.43
2018-08-07T10:55:25.374Z,1004.35
2018-08-07T10:56:34.104Z,1004.32
2018-08-07T10:57:42.702Z,1004.33
2018-08-07T10:58:51.367Z,1004.3
2018-08-07T11:00:00.029Z,1004.3
2018-08-07T11:01:08.961Z,1004.33
2018-08-07T11:02:17.871Z,1004.31
2018-08-07T11:03:26.531Z,1004.33
2018-08-07T11:04:35.185Z,1004.38
2018-08-07T11:05:43.916Z,1004.32
2018-08-07T11:06:52.499Z,1004.31
2018-08-07T11:08:01.158Z,1004.34
2018-08-07T11:09:09.812Z,1004.34
2018-08-07T11:10:18.478Z,1004.36
2018-08-07T11:11:27.122Z,1004.34
2018-08-07T11:12:35.787Z,1004.31
2018-08-07T11:13:44.501Z,1004.33
2018-08-07T11:14:53.110Z,1004.28
2018-08-07T11:16:01.766Z,1004.25
2018-08-07T11:17:10.428Z,1004.27
2018-08-07T11:18:19.078Z,1004.26
2018-08-07T11:19:27.996Z,1004.28
2018-08-07T11:20:36.661Z,1004.26
2018-08-07T11:21:45.316Z,1004.22
2018-08-07T11:22:53.979Z,1004.22
2018-08-07T11:24:02.889Z,1004.14
2018-08-07T11:25:11.830Z,1004.14
2018-08-07T11:26:20.487Z,1004.11
2018-08-07T11:27:29.148Z,1004.09
2018-08-07T11:28:37.796Z,1004.09
2018-08-07T11:29:46.502Z,1004.07
2018-08-07T11:30:55.427Z,1004.1
2018-08-07T11:32:04.088Z,1004.1
2018-08-07T11:33:12.738Z,1004.06
2018-08-07T11:34:21.398Z,1004.06
2018-08-07T11:35:30.060Z,1004.04
2018-08-07T11:36:38.724Z,1004.01
2018-08-07T11:37:47.383Z,1004.05
2018-08-07T11:38:56.032Z,1004.07
2018-08-07T11:40:04.691Z,1004.05
2018-08-07T11:41:13.442Z,1004.01
2018-08-07T11:42:22.039Z,1004.02
2018-08-07T11:43:30.706Z,1003.97
2018-08-07T11:44:39.358Z,1003.97
2018-08-07T11:45:48.285Z,1003.95
2018-08-07T11:46:57.570Z,1003.88
2018-08-07T11:48:06.521Z,1003.88
2018-08-07T11:49:15.457Z,1003.9
2018-08-07T11:50:24.119Z,1003.8
2018-08-07T11:51:32.766Z,1003.83
2018-08-07T11:52:41.425Z,1003.86
2018-08-07T11:53:50.355Z,1003.85
2018-08-07T11:54:59.017Z,1003.82
2018-08-07T11:56:07.678Z,1003.85
2018-08-07T11:57:16.327Z,1003.84
2018-08-07T11:58:24.988Z,1003.84
2018-08-07T11:59:33.643Z,1003.83
2018-08-07T12:00:42.309Z,1003.8
2018-08-07T12:01:51.013Z,1003.79
2018-08-07T12:02:59.621Z,1003.79
2018-08-07T12:04:08.554Z,1003.77
2018-08-07T12:05:17.221Z,1003.79
2018-08-07T12:06:25.878Z,1003.74
2018-08-07T12:07:34.536Z,1003.77
2018-08-07T12:08:43.189Z,1003.71
2018-08-07T12:09:51.856Z,1003.79
2018-08-07T12:11:00.512Z,1003.72
2018-08-07T12:12:09.170Z,1003.71
2018-08-07T12:13:17.826Z,1003.71
2018-08-07T12:14:26.481Z,1003.68
2018-08-07T12:15:35.412Z,1003.66
2018-08-07T12:16:44.067Z,1003.66
2018-08-07T12:17:52.731Z,1003.67
2018-08-07T12:19:01.382Z,1003.65
2018-08-07T12:20:10.051Z,1003.63
2018-08-07T12:21:18.971Z,1003.56
2018-08-07T12:22:27.633Z,1003.59
2018-08-07T12:23:36.284Z,1003.56
2018-08-07T12:24:44.951Z,1003.53
2018-08-07T12:25:53.607Z,1003.51
2018-08-07T12:27:02.268Z,1003.5
2018-08-07T12:28:10.919Z,1003.47
2018-08-07T12:29:19.579Z,1003.44
2018-08-07T12:30:28.243Z,1003.44
2018-08-07T12:31:36.915Z,1003.49
2018-08-07T12:32:46.102Z,1003.49
2018-08-07T12:33:54.752Z,1003.44
2018-08-07T12:35:03.466Z,1003.45
2018-08-07T12:36:12.070Z,1003.43
2018-08-07T12:37:20.739Z,1003.46
2018-08-07T12:38:29.388Z,1003.46
2018-08-07T12:39:38.048Z,1003.46
2018-08-07T12:40:46.703Z,1003.46
2018-08-07T12:41:55.366Z,1003.48
2018-08-07T12:43:04.023Z,1003.46
2018-08-07T12:44:12.954Z,1003.39
2018-08-07T12:45:21.610Z,1003.43
2018-08-07T12:46:30.344Z,1003.38
2018-08-07T12:47:39.236Z,1003.34
2018-08-07T12:48:47.899Z,1003.36
2018-08-07T12:49:56.818Z,1003.34
2018-08-07T12:51:05.474Z,1003.38
2018-08-07T12:52:14.143Z,1003.33
2018-08-07T12:53:22.871Z,1003.33
2018-08-07T12:54:31.747Z,1003.34
2018-08-07T12:55:40.402Z,1003.26
2018-08-07T12:56:49.063Z,1003.26
2018-08-07T12:57:57.986Z,1003.24
2018-08-07T12:59:06.647Z,1003.21
2018-08-07T13:00:15.299Z,1003.15
2018-08-07T13:01:24.347Z,1003.16
2018-08-07T13:02:33.347Z,1003.15
2018-08-07T13:03:42.268Z,1003.12
2018-08-07T13:04:50.922Z,1003.13
2018-08-07T13:05:59.854Z,1003.13
2018-08-07T13:07:09.035Z,1003.17
2018-08-07T13:08:17.706Z,1003.16
2018-08-07T13:09:26.370Z,1003.15
2018-08-07T13:10:35.023Z,1003.14
2018-08-07T13:11:43.683Z,1003.15
2018-08-07T13:12:52.341Z,1003.14
2018-08-07T13:14:01.004Z,1003.14
2018-08-07T13:15:09.925Z,1003.07
2018-08-07T13:16:18.846Z,1003.07
2018-08-07T13:17:27.589Z,1003.02
2018-08-07T13:18:36.543Z,1003
2018-08-07T13:19:45.198Z,1002.99
2018-08-07T13:20:53.859Z,1002.99
2018-08-07T13:22:02.522Z,1002.91
2018-08-07T13:23:11.459Z,1002.94
2018-08-07T13:24:20.134Z,1002.94
2018-08-07T13:25:28.781Z,1002.96
2018-08-07T13:26:37.440Z,1002.89
2018-08-07T13:27:46.096Z,1002.9
2018-08-07T13:28:55.018Z,1002.92
2018-08-07T13:30:03.679Z,1002.93
2018-08-07T13:31:12.356Z,1002.92
2018-08-07T13:32:21.005Z,1002.91
2018-08-07T13:33:29.661Z,1002.92
2018-08-07T13:34:38.322Z,1002.89
2018-08-07T13:35:46.980Z,1002.91
2018-08-07T13:36:55.670Z,1002.88
2018-08-07T13:38:04.300Z,1002.85
2018-08-07T13:39:12.961Z,1002.83
2018-08-07T13:40:21.894Z,1002.78
2018-08-07T13:41:30.830Z,1002.77
2018-08-07T13:42:39.487Z,1002.77
2018-08-07T13:43:48.140Z,1002.74
2018-08-07T13:44:56.799Z,1002.73
2018-08-07T13:46:05.456Z,1002.71
2018-08-07T13:47:14.124Z,1002.67
2018-08-07T13:48:22.778Z,1002.65
2018-08-07T13:49:31.479Z,1002.66
2018-08-07T13:50:40.093Z,1002.67
2018-08-07T13:51:48.759Z,1002.63
2018-08-07T13:52:57.414Z,1002.66
2018-08-07T13:54:06.079Z,1002.61